createdAt,value
2023-01-18T00:00:33.509Z,1.77
2023-01-18T00:03:00.232Z,1.02
2023-01-18T00:05:26.993Z,2.47
2023-01-18T00:07:53.558Z,0.93
2023-01-18T00:10:19.932Z,0.85
2023-01-18T00:12:46.511Z,1.73
2023-01-18T00:15:12.890Z,1.13
2023-01-18T00:17:47.752Z,0.80
2023-01-18T00:20:14.792Z,1.00
2023-01-18T00:22:41.230Z,0.98
2023-01-18T00:25:07.789Z,1.27
2023-01-18T00:27:34.100Z,1.10
2023-01-18T00:30:00.396Z,1.35
2023-01-18T00:32:26.737Z,1.08
2023-01-18T00:34:53.117Z,1.33
2023-01-18T00:37:19.404Z,1.83
2023-01-18T00:39:45.757Z,1.10
2023-01-18T00:42:30.649Z,1.58
2023-01-18T00:44:56.983Z,1.38
2023-01-18T00:47:23.328Z,1.48
2023-01-18T00:49:49.605Z,0.60
2023-01-18T00:52:15.959Z,0.73
2023-01-18T00:54:42.416Z,0.70
2023-01-18T00:57:08.823Z,0.80
2023-01-18T00:59:35.112Z,0.73
2023-01-18T01:02:01.663Z,0.65
2023-01-18T01:04:46.908Z,0.90
2023-01-18T01:07:13.281Z,1.95
2023-01-18T01:09:40.065Z,1.38
2023-01-18T01:12:24.859Z,2.92
2023-01-18T01:15:09.762Z,3.05
2023-01-18T01:17:55.486Z,1.95
2023-01-18T01:20:41.300Z,1.48
2023-01-18T01:23:30.753Z,1.45
2023-01-18T01:26:10.967Z,1.20
2023-01-18T01:28:41.371Z,1.30
2023-01-18T01:31:08.814Z,2.03
2023-01-18T01:33:35.709Z,1.88
2023-01-18T01:36:03.876Z,0.93
2023-01-18T01:38:30.427Z,1.45
2023-01-18T01:41:01.038Z,1.30
2023-01-18T01:43:39.274Z,1.23
2023-01-18T01:46:11.538Z,1.60
2023-01-18T01:48:37.868Z,1.85
2023-01-18T01:51:04.193Z,0.75
2023-01-18T01:53:30.579Z,0.88
2023-01-18T01:55:56.921Z,1.17
2023-01-18T01:58:26.021Z,1.00
2023-01-18T02:00:54.244Z,1.83
2023-01-18T02:03:22.499Z,1.38
2023-01-18T02:05:51.765Z,1.27
2023-01-18T02:08:22.187Z,1.65
2023-01-18T02:10:49.240Z,1.10
2023-01-18T02:13:15.977Z,2.38
2023-01-18T02:16:01.205Z,2.03
2023-01-18T02:18:30.545Z,1.70
2023-01-18T02:21:05.856Z,1.27
2023-01-18T02:23:33.165Z,1.30
2023-01-18T02:26:05.231Z,1.40
2023-01-18T02:31:00.595Z,3.10
2023-01-18T02:33:42.236Z,2.20
2023-01-18T02:36:08.606Z,0.82
2023-01-18T02:38:45.379Z,0.93
2023-01-18T02:41:17.896Z,1.25
2023-01-18T02:44:03.924Z,1.15
2023-01-18T02:46:30.768Z,1.30
2023-01-18T02:48:57.619Z,2.15
2023-01-18T02:51:24.419Z,2.22
2023-01-18T02:53:50.856Z,2.08
2023-01-18T02:56:21.826Z,1.98
2023-01-18T02:58:51.316Z,1.13
2023-01-18T03:01:26.723Z,2.78
2023-01-18T03:03:56.621Z,2.53
2023-01-18T03:06:24.852Z,2.30
2023-01-18T03:08:52.745Z,1.17
2023-01-18T03:11:27.078Z,1.85
2023-01-18T03:14:08.870Z,1.55
2023-01-18T03:16:40.211Z,1.25
2023-01-18T03:19:30.627Z,1.33
2023-01-18T03:21:57.261Z,1.13
2023-01-18T03:24:23.681Z,0.93
2023-01-18T03:26:53.134Z,1.27
2023-01-18T03:29:39.547Z,2.15
2023-01-18T03:32:31.837Z,2.20
2023-01-18T03:37:29.656Z,2.42
2023-01-18T03:39:57.766Z,1.90
2023-01-18T03:42:35.731Z,2.00
2023-01-18T03:45:10.753Z,1.95
2023-01-18T03:47:37.398Z,2.08
2023-01-18T03:50:03.914Z,1.40
2023-01-18T03:52:43.569Z,2.67
2023-01-18T03:55:14.233Z,2.13
2023-01-18T03:57:40.582Z,1.42
2023-01-18T04:00:08.645Z,2.30
2023-01-18T04:02:35.083Z,3.50
2023-01-18T04:05:03.575Z,2.80
2023-01-18T04:07:31.717Z,2.55
2023-01-18T04:09:58.725Z,1.92
2023-01-18T04:12:25.437Z,2.30
2023-01-18T04:14:52.268Z,1.95
2023-01-18T04:17:19.162Z,1.77
2023-01-18T04:19:45.527Z,2.70
2023-01-18T04:22:11.992Z,1.33
2023-01-18T04:24:38.763Z,0.70
2023-01-18T04:27:05.138Z,1.40
2023-01-18T04:29:31.436Z,1.83
2023-01-18T04:31:58.049Z,1.60
2023-01-18T04:34:24.463Z,1.30
2023-01-18T04:36:51.229Z,1.95
2023-01-18T04:39:17.727Z,1.52
2023-01-18T04:41:44.700Z,1.15
2023-01-18T04:44:11.238Z,2.42
2023-01-18T04:46:38.563Z,1.17
2023-01-18T04:49:05.905Z,1.23
2023-01-18T04:51:32.581Z,0.98
2023-01-18T04:53:59.300Z,1.40
2023-01-18T04:56:25.801Z,1.10
2023-01-18T04:58:52.647Z,1.00
2023-01-18T05:01:18.989Z,2.03
2023-01-18T05:03:45.465Z,2.58
2023-01-18T05:06:12.608Z,2.05
2023-01-18T05:08:41.955Z,1.85
2023-01-18T05:11:09.749Z,2.05
2023-01-18T05:13:36.066Z,1.67
2023-01-18T05:16:05.964Z,2.97
2023-01-18T05:18:32.582Z,2.42
2023-01-18T05:20:58.906Z,2.03
2023-01-18T05:23:25.500Z,3.53
2023-01-18T05:25:52.908Z,2.15
2023-01-18T05:28:19.387Z,2.03
2023-01-18T05:30:45.749Z,1.40
2023-01-18T05:33:12.131Z,1.25
2023-01-18T05:35:38.540Z,1.45
2023-01-18T05:38:04.900Z,1.55
2023-01-18T05:40:31.459Z,3.25
2023-01-18T05:42:58.043Z,2.47
2023-01-18T05:45:24.713Z,3.20
2023-01-18T05:47:51.001Z,2.70
2023-01-18T05:50:17.409Z,3.95
2023-01-18T05:52:44.842Z,2.15
2023-01-18T05:55:11.170Z,1.73
2023-01-18T05:57:37.461Z,1.23
2023-01-18T06:00:05.080Z,0.98
2023-01-18T06:02:31.477Z,2.17
2023-01-18T06:04:57.773Z,2.03
2023-01-18T06:07:24.075Z,1.58
2023-01-18T06:09:50.406Z,2.70
2023-01-18T06:12:16.705Z,2.53
2023-01-18T06:14:43.153Z,1.58
2023-01-18T06:17:09.437Z,2.38
2023-01-18T06:19:35.973Z,1.83
2023-01-18T06:22:02.324Z,1.60
2023-01-18T06:24:28.668Z,3.35
2023-01-18T06:26:55.077Z,3.42
2023-01-18T06:29:21.412Z,2.85
2023-01-18T06:31:47.856Z,3.63
2023-01-18T06:34:14.280Z,3.05
2023-01-18T06:36:40.698Z,3.63
2023-01-18T06:39:07.134Z,3.05
2023-01-18T06:41:33.662Z,4.40
2023-01-18T06:43:59.987Z,3.85
2023-01-18T06:46:26.311Z,2.35
2023-01-18T06:48:52.777Z,4.32
2023-01-18T06:51:20.320Z,2.15
2023-01-18T06:53:46.613Z,2.63
2023-01-18T06:56:14.614Z,3.80
2023-01-18T06:58:41.001Z,7.65
2023-01-18T07:01:07.721Z,7.15
2023-01-18T07:03:34.474Z,5.20
2023-01-18T07:06:01.681Z,3.88
2023-01-18T07:08:30.956Z,7.50
2023-01-18T07:10:57.881Z,4.13
2023-01-18T07:13:24.319Z,3.50
2023-01-18T07:15:54.845Z,4.03
2023-01-18T07:18:21.191Z,3.08
2023-01-18T07:20:47.601Z,2.78
2023-01-18T07:23:13.885Z,3.63
2023-01-18T07:25:40.248Z,2.20
2023-01-18T07:28:06.636Z,1.73
2023-01-18T07:30:32.994Z,1.27
2023-01-18T07:32:59.748Z,1.77
2023-01-18T07:35:27.452Z,1.58
2023-01-18T07:37:53.980Z,1.63
2023-01-18T07:40:21.275Z,0.93
2023-01-18T07:42:48.993Z,1.95
2023-01-18T07:45:15.652Z,1.38
2023-01-18T07:47:42.609Z,1.58
2023-01-18T07:50:09.629Z,2.97
2023-01-18T07:52:36.029Z,3.40
2023-01-18T07:55:02.430Z,2.92
2023-01-18T07:57:28.818Z,1.73
2023-01-18T07:59:55.464Z,1.80
2023-01-18T08:02:21.953Z,2.22
2023-01-18T08:04:49.986Z,1.73
2023-01-18T08:07:17.774Z,1.92
2023-01-18T08:09:44.233Z,1.73
2023-01-18T08:12:13.616Z,1.75
2023-01-18T08:14:40.454Z,3.38
2023-01-18T08:17:06.889Z,4.13
2023-01-18T08:19:33.222Z,5.28
2023-01-18T08:21:59.573Z,1.98
2023-01-18T08:24:26.127Z,5.32
2023-01-18T08:26:52.582Z,2.78
2023-01-18T08:29:18.933Z,4.53
2023-01-18T08:31:45.237Z,2.97
2023-01-18T08:34:11.711Z,3.90
2023-01-18T08:36:38.062Z,6.25
2023-01-18T08:39:04.385Z,2.75
2023-01-18T08:41:31.009Z,3.85
2023-01-18T08:43:58.305Z,4.15
2023-01-18T08:46:25.175Z,3.45
2023-01-18T08:48:56.261Z,4.03
2023-01-18T08:51:23.001Z,3.40
2023-01-18T08:53:51.619Z,2.83
2023-01-18T08:56:18.806Z,2.35
2023-01-18T08:58:45.186Z,2.58
2023-01-18T09:01:11.638Z,2.40
2023-01-18T09:03:38.052Z,2.80
2023-01-18T09:06:05.814Z,3.15
2023-01-18T09:08:32.154Z,2.88
2023-01-18T09:11:05.615Z,2.97
2023-01-18T09:13:32.471Z,2.90
2023-01-18T09:16:03.324Z,2.78
2023-01-18T09:18:30.214Z,2.47
2023-01-18T09:20:57.278Z,1.60
2023-01-18T09:23:24.168Z,2.78
2023-01-18T09:26:03.564Z,2.13
2023-01-18T09:28:30.133Z,2.22
2023-01-18T09:30:59.597Z,2.30
2023-01-18T09:33:36.749Z,1.35
2023-01-18T09:36:05.379Z,0.77
2023-01-18T09:38:31.843Z,0.85
2023-01-18T09:40:58.860Z,1.00
2023-01-18T09:43:30.667Z,0.95
2023-01-18T09:45:57.121Z,1.27
2023-01-18T09:48:29.572Z,0.65
2023-01-18T09:50:58.174Z,0.77
2023-01-18T09:53:33.444Z,0.60
2023-01-18T09:56:11.866Z,1.58
2023-01-18T09:58:41.678Z,1.63
2023-01-18T10:01:12.023Z,1.55
2023-01-18T10:03:44.358Z,1.73
2023-01-18T10:06:17.706Z,2.65
2023-01-18T10:08:53.317Z,1.33
2023-01-18T10:11:23.498Z,2.33
2023-01-18T10:13:58.708Z,3.75
2023-01-18T10:16:25.916Z,2.83
2023-01-18T10:18:55.583Z,2.35
2023-01-18T10:21:28.933Z,2.63
2023-01-18T10:24:01.563Z,4.60
2023-01-18T10:26:30.751Z,5.00
2023-01-18T10:28:58.972Z,6.20
2023-01-18T10:31:35.244Z,4.85
2023-01-18T10:34:02.778Z,5.18
2023-01-18T10:36:32.847Z,7.13
2023-01-18T10:39:04.290Z,7.32
2023-01-18T10:41:36.913Z,9.45
2023-01-18T10:44:03.496Z,9.45
2023-01-18T10:46:29.939Z,8.48
2023-01-18T10:48:59.383Z,9.23
2023-01-18T10:51:36.210Z,7.25
2023-01-18T10:54:17.600Z,6.82
2023-01-18T10:56:44.506Z,6.75
2023-01-18T10:59:25.058Z,6.45
2023-01-18T11:01:53.331Z,5.25
2023-01-18T11:04:25.486Z,4.30
2023-01-18T11:09:37.989Z,7.80
2023-01-18T11:12:38.475Z,5.88
2023-01-18T11:15:13.956Z,6.88
2023-01-18T11:17:41.781Z,7.93
2023-01-18T11:20:15.950Z,11.35
2023-01-18T11:22:55.278Z,8.57
2023-01-18T11:25:23.311Z,9.02
2023-01-18T11:27:49.758Z,6.40
2023-01-18T11:30:23.362Z,7.70
2023-01-18T11:32:50.652Z,6.57
2023-01-18T11:35:37.430Z,6.05
2023-01-18T11:38:06.624Z,5.75
2023-01-18T11:40:33.746Z,6.55
2023-01-18T11:43:03.807Z,4.85
2023-01-18T11:45:40.421Z,5.50
2023-01-18T11:48:09.873Z,5.68
2023-01-18T11:50:40.634Z,5.28
2023-01-18T11:53:12.783Z,5.63
2023-01-18T11:56:06.008Z,4.75
2023-01-18T11:58:33.117Z,5.45
2023-01-18T12:00:59.397Z,5.93
2023-01-18T12:03:40.800Z,5.65
2023-01-18T12:06:14.755Z,4.32
2023-01-18T12:08:41.340Z,4.95
2023-01-18T12:11:07.616Z,4.65
2023-01-18T12:13:42.272Z,7.47
2023-01-18T12:16:15.853Z,4.28
2023-01-18T12:18:48.079Z,4.95
2023-01-18T12:21:19.548Z,5.72
2023-01-18T12:23:49.458Z,4.32
2023-01-18T12:26:18.522Z,2.90
2023-01-18T12:28:47.977Z,2.00
2023-01-18T12:31:40.528Z,4.10
2023-01-18T12:34:20.514Z,1.92
2023-01-18T12:36:58.821Z,2.35
2023-01-18T12:39:48.426Z,4.18
2023-01-18T12:42:21.568Z,1.80
2023-01-18T12:44:47.875Z,1.77
2023-01-18T12:47:35.122Z,1.25
2023-01-18T12:50:05.507Z,2.60
2023-01-18T12:52:41.506Z,1.95
2023-01-18T12:55:08.240Z,3.20
2023-01-18T12:57:35.233Z,2.72
2023-01-18T13:00:06.283Z,2.13
2023-01-18T13:02:38.850Z,1.05
2023-01-18T13:05:17.861Z,1.40
2023-01-18T13:07:46.571Z,2.25
2023-01-18T13:10:21.483Z,2.70
2023-01-18T13:12:49.457Z,2.40
2023-01-18T13:15:20.768Z,4.32
2023-01-18T13:18:00.727Z,3.00
2023-01-18T13:20:39.098Z,3.35
2023-01-18T13:23:27.500Z,4.10
2023-01-18T13:26:16.823Z,5.10
2023-01-18T13:28:44.156Z,4.55
2023-01-18T13:31:10.589Z,4.10
2023-01-18T13:33:39.235Z,3.00
2023-01-18T13:36:11.025Z,6.28
2023-01-18T13:39:01.753Z,7.38
2023-01-18T13:41:29.395Z,4.47
2023-01-18T13:44:03.247Z,8.02
2023-01-18T13:46:31.338Z,3.75
2023-01-18T13:48:58.955Z,3.72
2023-01-18T13:51:40.391Z,3.75
2023-01-18T13:54:09.717Z,3.45
2023-01-18T13:56:39.702Z,3.33
2023-01-18T13:59:18.427Z,3.50
2023-01-18T14:01:46.269Z,4.82
2023-01-18T14:04:30.084Z,3.80
2023-01-18T14:06:58.688Z,4.70
2023-01-18T14:09:34.183Z,5.70
2023-01-18T14:12:00.636Z,5.30
2023-01-18T14:14:31.300Z,3.78
2023-01-18T14:16:59.754Z,3.17
2023-01-18T14:19:27.534Z,5.75
2023-01-18T14:21:53.821Z,5.28
2023-01-18T14:24:27.114Z,6.55
2023-01-18T14:26:54.806Z,6.65
2023-01-18T14:29:25.135Z,6.10
2023-01-18T14:31:53.605Z,5.18
2023-01-18T14:34:23.470Z,6.57
2023-01-18T14:36:49.844Z,8.95
2023-01-18T14:39:17.932Z,7.55
2023-01-18T14:41:47.481Z,5.65
2023-01-18T14:44:18.324Z,8.18
2023-01-18T14:46:49.919Z,6.30
2023-01-18T14:49:18.010Z,6.13
2023-01-18T14:51:48.318Z,6.50
2023-01-18T14:54:17.133Z,6.63
2023-01-18T14:56:43.542Z,7.65
2023-01-18T14:59:23.675Z,8.57
2023-01-18T15:01:56.116Z,7.68
2023-01-18T15:04:24.000Z,5.28
2023-01-18T15:07:13.607Z,4.78
2023-01-18T15:09:40.752Z,4.53
2023-01-18T15:12:08.925Z,4.90
2023-01-18T15:14:36.663Z,5.18
2023-01-18T15:17:06.653Z,6.93
2023-01-18T15:19:34.476Z,6.15
2023-01-18T15:22:01.463Z,6.45
2023-01-18T15:24:29.273Z,4.97
2023-01-18T15:26:57.060Z,7.97
2023-01-18T15:29:26.434Z,7.38
2023-01-18T15:31:57.190Z,4.90
2023-01-18T15:34:26.883Z,5.60
2023-01-18T15:36:54.677Z,5.68
2023-01-18T15:39:21.150Z,5.18
2023-01-18T15:41:47.692Z,2.92
2023-01-18T15:44:24.901Z,4.75
2023-01-18T15:46:51.181Z,7.03
2023-01-18T15:49:18.363Z,4.97
2023-01-18T15:51:57.177Z,5.93
2023-01-18T15:54:28.439Z,4.72
2023-01-18T15:57:09.801Z,5.60
2023-01-18T15:59:36.081Z,5.70
2023-01-18T16:02:05.556Z,7.00
2023-01-18T16:04:32.135Z,6.72
2023-01-18T16:06:58.593Z,9.85
2023-01-18T16:09:25.180Z,4.90
2023-01-18T16:11:53.082Z,5.45
2023-01-18T16:14:28.522Z,5.28
2023-01-18T16:16:55.207Z,4.60
2023-01-18T16:19:21.581Z,4.43
2023-01-18T16:21:49.997Z,4.32
2023-01-18T16:24:16.404Z,4.40
2023-01-18T16:26:43.751Z,4.15
2023-01-18T16:29:10.175Z,3.33
2023-01-18T16:31:39.104Z,3.47
2023-01-18T16:34:16.451Z,4.47
2023-01-18T16:36:43.002Z,9.77
2023-01-18T16:39:09.383Z,7.95
2023-01-18T16:41:35.789Z,6.18
2023-01-18T16:44:03.447Z,11.63
2023-01-18T16:46:29.849Z,12.73
2023-01-18T16:48:56.214Z,9.68
2023-01-18T16:51:24.444Z,11.32
2023-01-18T16:53:50.817Z,8.07
2023-01-18T16:56:17.236Z,9.85
2023-01-18T16:58:43.744Z,6.60
2023-01-18T17:01:11.967Z,8.20
2023-01-18T17:03:39.581Z,6.72
2023-01-18T17:06:06.535Z,8.45
2023-01-18T17:08:33.219Z,9.40
2023-01-18T17:10:59.738Z,5.93
2023-01-18T17:13:26.156Z,7.78
2023-01-18T17:15:53.125Z,7.88
2023-01-18T17:18:22.384Z,11.65
2023-01-18T17:20:48.802Z,7.75
2023-01-18T17:23:15.480Z,7.40
2023-01-18T17:25:41.846Z,8.75
2023-01-18T17:28:08.658Z,10.55
2023-01-18T17:30:35.071Z,9.38
2023-01-18T17:33:01.720Z,11.73
2023-01-18T17:35:28.631Z,10.38
2023-01-18T17:38:01.078Z,10.02
2023-01-18T17:40:40.068Z,13.80
2023-01-18T17:43:11.564Z,9.07
2023-01-18T17:45:40.753Z,10.38
2023-01-18T17:48:07.158Z,15.32
2023-01-18T17:50:33.545Z,26.75
2023-01-18T17:53:00.412Z,17.92
2023-01-18T17:55:34.256Z,15.57
2023-01-18T17:58:01.351Z,13.65
2023-01-18T18:00:27.686Z,9.27
2023-01-18T18:02:54.287Z,11.20
2023-01-18T18:05:20.729Z,9.20
2023-01-18T18:07:49.571Z,10.02
2023-01-18T18:10:16.367Z,8.43
2023-01-18T18:12:43.169Z,11.30
2023-01-18T18:15:09.634Z,11.20
2023-01-18T18:17:36.116Z,10.88
2023-01-18T18:20:02.577Z,12.18
2023-01-18T18:22:29.014Z,9.80
2023-01-18T18:24:55.430Z,11.48
2023-01-18T18:27:23.172Z,10.10
2023-01-18T18:29:49.868Z,10.10
2023-01-18T18:32:17.131Z,12.32
2023-01-18T18:34:43.554Z,11.00
2023-01-18T18:37:09.958Z,10.00
2023-01-18T18:39:36.291Z,14.70
2023-01-18T18:42:02.637Z,18.35
2023-01-18T18:44:28.964Z,15.30
2023-01-18T18:46:55.246Z,17.05
2023-01-18T18:49:21.751Z,13.38
2023-01-18T18:51:48.146Z,13.50
2023-01-18T18:54:14.587Z,14.13
2023-01-18T18:56:41.572Z,22.25
2023-01-18T18:59:08.173Z,17.40
2023-01-18T19:01:35.288Z,16.77
2023-01-18T19:04:01.796Z,11.38
2023-01-18T19:06:28.217Z,13.13
2023-01-18T19:08:54.629Z,13.15
2023-01-18T19:11:21.021Z,14.75
2023-01-18T19:13:49.378Z,13.07
2023-01-18T19:16:16.678Z,13.50
2023-01-18T19:18:43.551Z,12.88
2023-01-18T19:21:09.885Z,13.73
2023-01-18T19:23:36.179Z,12.73
2023-01-18T19:26:03.907Z,13.95
2023-01-18T19:28:30.901Z,9.52
2023-01-18T19:31:04.101Z,12.70
2023-01-18T19:33:30.401Z,12.80
2023-01-18T19:35:56.778Z,11.95
2023-01-18T19:38:23.317Z,12.77
2023-01-18T19:40:49.745Z,9.52
2023-01-18T19:43:16.197Z,10.77
2023-01-18T19:45:42.613Z,14.98
2023-01-18T19:48:09.094Z,11.75
2023-01-18T19:50:35.470Z,12.55
2023-01-18T19:53:02.171Z,12.63
2023-01-18T19:55:28.695Z,17.25
2023-01-18T19:57:56.052Z,12.90
2023-01-18T20:00:22.649Z,14.45
2023-01-18T20:02:49.148Z,15.57
2023-01-18T20:05:15.531Z,16.23
2023-01-18T20:07:42.602Z,21.23
2023-01-18T20:10:09.159Z,19.15
2023-01-18T20:12:35.513Z,10.60
2023-01-18T20:15:01.959Z,9.98
2023-01-18T20:17:28.262Z,9.40
2023-01-18T20:19:54.665Z,13.57
2023-01-18T20:22:22.219Z,9.45
2023-01-18T20:24:48.867Z,10.15
2023-01-18T20:27:16.871Z,9.07
2023-01-18T20:29:43.680Z,9.65
2023-01-18T20:32:16.155Z,6.93
2023-01-18T20:34:46.992Z,6.68
2023-01-18T20:37:15.018Z,7.97
2023-01-18T20:39:41.590Z,8.80
2023-01-18T20:42:08.269Z,9.02
2023-01-18T20:44:34.634Z,7.80
2023-01-18T20:47:01.078Z,6.30
2023-01-18T20:49:37.273Z,10.18
2023-01-18T20:52:04.910Z,11.30
2023-01-18T20:54:31.309Z,12.65
2023-01-18T20:56:58.758Z,9.70
2023-01-18T20:59:25.291Z,10.68
2023-01-18T21:01:52.942Z,8.73
2023-01-18T21:04:20.708Z,13.15
2023-01-18T21:06:49.676Z,12.35
2023-01-18T21:09:16.448Z,10.18
2023-01-18T21:11:42.817Z,11.35
2023-01-18T21:14:09.416Z,13.15
2023-01-18T21:16:35.810Z,11.90
2023-01-18T21:19:02.117Z,14.75
2023-01-18T21:21:29.614Z,19.02
2023-01-18T21:23:56.047Z,13.48
2023-01-18T21:26:22.640Z,13.68
2023-01-18T21:28:49.044Z,10.27
2023-01-18T21:31:15.415Z,15.43
2023-01-18T21:33:42.474Z,18.00
2023-01-18T21:36:11.282Z,12.45
2023-01-18T21:38:37.618Z,11.65
2023-01-18T21:41:23.067Z,10.05
2023-01-18T21:44:08.733Z,14.07
2023-01-18T21:46:36.026Z,12.80
2023-01-18T21:49:03.882Z,10.98
2023-01-18T21:51:49.141Z,14.23
2023-01-18T21:54:15.586Z,12.85
2023-01-18T21:56:45.355Z,11.13
2023-01-18T21:59:12.680Z,13.95
2023-01-18T22:01:40.825Z,8.77
2023-01-18T22:04:27.332Z,11.40
2023-01-18T22:06:54.071Z,12.77
2023-01-18T22:09:20.599Z,7.45
2023-01-18T22:11:47.410Z,10.52
2023-01-18T22:14:13.866Z,8.70
2023-01-18T22:16:40.256Z,10.95
2023-01-18T22:19:07.068Z,12.20
2023-01-18T22:21:33.526Z,11.10
2023-01-18T22:23:59.877Z,12.57
2023-01-18T22:26:27.621Z,9.63
2023-01-18T22:28:53.949Z,11.60
2023-01-18T22:31:20.474Z,14.77
2023-01-18T22:33:48.345Z,11.30
2023-01-18T22:36:15.424Z,9.70
2023-01-18T22:38:42.189Z,11.57
2023-01-18T22:41:12.973Z,11.15
2023-01-18T22:43:39.877Z,10.27
2023-01-18T22:46:07.252Z,12.63
2023-01-18T22:48:34.323Z,12.40
2023-01-18T22:51:01.324Z,13.40
2023-01-18T22:53:28.435Z,10.00
2023-01-18T22:55:55.353Z,12.80
2023-01-18T22:58:21.801Z,16.38
2023-01-18T23:00:49.119Z,12.85
2023-01-18T23:03:17.376Z,12.98
2023-01-18T23:05:52.237Z,15.38
2023-01-18T23:08:18.539Z,13.13
2023-01-18T23:10:44.894Z,12.60
2023-01-18T23:13:11.285Z,13.73
2023-01-18T23:16:05.574Z,12.18
2023-01-18T23:18:31.897Z,12.75
2023-01-18T23:20:58.874Z,15.65
2023-01-18T23:23:25.450Z,13.50
2023-01-18T23:25:59.153Z,10.63
2023-01-18T23:28:41.059Z,13.15
2023-01-18T23:31:14.925Z,14.48
2023-01-18T23:33:41.487Z,11.75
2023-01-18T23:36:08.625Z,10.85
2023-01-18T23:38:53.728Z,12.35
2023-01-18T23:41:38.780Z,12.40
2023-01-18T23:44:23.525Z,13.23
2023-01-18T23:47:08.617Z,10.70
2023-01-18T23:49:53.534Z,12.80
2023-01-18T23:52:38.709Z,13.68
2023-01-18T23:55:05.838Z,12.48
2023-01-18T23:57:32.714Z,12.00
2023-01-18T23:59:59.135Z,12.70
